createdAt,value
2022-09-02T00:01:38.334Z,2.92
2022-09-02T00:04:15.758Z,4.95
2022-09-02T00:06:50.963Z,3.40
2022-09-02T00:09:26.238Z,3.58
2022-09-02T00:11:59.274Z,3.52
2022-09-02T00:14:36.863Z,4.45
2022-09-02T00:17:10.110Z,4.28
2022-09-02T00:19:43.165Z,4.87
2022-09-02T00:22:16.653Z,2.60
2022-09-02T00:24:49.753Z,5.28
2022-09-02T00:27:22.730Z,3.10
2022-09-02T00:29:55.592Z,6.08
2022-09-02T00:32:28.886Z,3.12
2022-09-02T00:35:02.331Z,4.10
2022-09-02T00:37:35.759Z,2.87
2022-09-02T00:40:12.086Z,2.37
2022-09-02T00:42:45.625Z,4.37
2022-09-02T00:45:19.598Z,2.87
2022-09-02T00:47:53.334Z,6.65
2022-09-02T00:50:31.096Z,4.55
2022-09-02T00:53:11.237Z,4.28
2022-09-02T00:55:48.105Z,3.72
2022-09-02T00:58:26.099Z,3.62
2022-09-02T01:01:00.194Z,4.20
2022-09-02T01:03:34.747Z,3.92
2022-09-02T01:06:08.139Z,3.52
2022-09-02T01:11:17.644Z,2.70
2022-09-02T01:13:51.811Z,4.83
2022-09-02T01:16:31.928Z,3.20
2022-09-02T01:19:10.354Z,4.50
2022-09-02T01:21:54.831Z,2.77
2022-09-02T01:24:31.509Z,3.55
2022-09-02T01:27:04.628Z,2.02
2022-09-02T01:29:38.201Z,1.60
2022-09-02T01:32:11.194Z,1.62
2022-09-02T01:34:44.316Z,2.42
2022-09-02T01:37:17.452Z,3.52
2022-09-02T01:39:52.584Z,4.78
2022-09-02T01:42:26.804Z,3.50
2022-09-02T01:45:01.215Z,4.10
2022-09-02T01:47:35.311Z,2.35
2022-09-02T01:50:10.177Z,3.03
2022-09-02T01:52:43.568Z,3.67
2022-09-02T01:55:17.438Z,4.45
2022-09-02T01:57:50.352Z,4.35
2022-09-02T02:00:25.311Z,3.80
2022-09-02T02:02:58.475Z,4.70
2022-09-02T02:05:33.732Z,2.33
2022-09-02T02:08:07.835Z,2.45
2022-09-02T02:10:43.978Z,4.03
2022-09-02T02:13:17.891Z,1.80
2022-09-02T02:18:24.917Z,4.75
2022-09-02T02:20:58.960Z,2.52
2022-09-02T02:23:31.975Z,4.67
2022-09-02T02:26:06.062Z,2.10
2022-09-02T02:28:39.459Z,3.22
2022-09-02T02:31:12.497Z,1.65
2022-09-02T02:33:46.969Z,3.67
2022-09-02T02:36:20.931Z,2.22
2022-09-02T02:38:54.301Z,2.22
2022-09-02T02:41:27.298Z,4.50
2022-09-02T02:44:00.610Z,5.25
2022-09-02T02:46:35.910Z,2.35
2022-09-02T02:49:09.658Z,3.00
2022-09-02T02:51:43.701Z,2.12
2022-09-02T02:54:16.810Z,4.53
2022-09-02T02:56:49.879Z,5.15
2022-09-02T02:59:22.744Z,4.42
2022-09-02T03:01:56.667Z,4.08
2022-09-02T03:04:30.250Z,2.98
2022-09-02T03:07:03.671Z,6.20
2022-09-02T03:09:38.065Z,6.37
2022-09-02T03:12:11.692Z,4.05
2022-09-02T03:14:45.382Z,3.67
2022-09-02T03:17:20.037Z,2.77
2022-09-02T03:19:54.488Z,3.83
2022-09-02T03:22:28.859Z,4.55
2022-09-02T03:25:02.349Z,3.40
2022-09-02T03:27:36.205Z,3.22
2022-09-02T03:30:13.416Z,2.87
2022-09-02T03:32:47.295Z,2.87
2022-09-02T03:35:22.606Z,2.87
2022-09-02T03:37:57.417Z,3.02
2022-09-02T03:40:30.737Z,2.65
2022-09-02T03:43:04.226Z,2.02
2022-09-02T03:45:39.046Z,4.30
2022-09-02T03:48:14.554Z,4.87
2022-09-02T03:50:48.667Z,5.03
2022-09-02T03:53:24.060Z,4.50
2022-09-02T03:55:59.378Z,5.28
2022-09-02T03:58:33.161Z,5.80
2022-09-02T04:01:07.961Z,3.58
2022-09-02T04:03:41.264Z,3.75
2022-09-02T04:06:16.631Z,4.85
2022-09-02T04:08:51.820Z,4.85
2022-09-02T04:11:26.135Z,4.08
2022-09-02T04:14:01.299Z,3.47
2022-09-02T04:16:36.966Z,3.98
2022-09-02T04:19:11.966Z,3.25
2022-09-02T04:21:44.946Z,4.15
2022-09-02T04:24:18.251Z,6.00
2022-09-02T04:26:53.227Z,13.15
2022-09-02T04:29:26.705Z,7.33
2022-09-02T04:32:01.197Z,3.47
2022-09-02T04:34:34.699Z,7.53
2022-09-02T04:37:08.966Z,2.70
2022-09-02T04:39:43.298Z,3.15
2022-09-02T04:42:16.529Z,2.72
2022-09-02T04:44:49.586Z,6.12
2022-09-02T04:47:23.814Z,4.35
2022-09-02T04:49:56.830Z,3.20
2022-09-02T04:52:30.431Z,5.07
2022-09-02T04:55:07.316Z,7.70
2022-09-02T04:57:43.290Z,2.58
2022-09-02T05:00:19.335Z,2.92
2022-09-02T05:02:56.046Z,6.92
2022-09-02T05:05:31.079Z,5.05
2022-09-02T05:08:05.660Z,4.25
2022-09-02T05:10:39.050Z,9.70
2022-09-02T05:13:12.937Z,6.33
2022-09-02T05:15:47.605Z,3.87
2022-09-02T05:18:21.820Z,2.95
2022-09-02T05:20:55.394Z,2.40
2022-09-02T05:23:28.637Z,4.83
2022-09-02T05:26:03.655Z,3.65
2022-09-02T05:28:38.122Z,2.98
2022-09-02T05:31:15.253Z,6.03
2022-09-02T05:33:49.294Z,3.35
2022-09-02T05:36:24.740Z,2.83
2022-09-02T05:39:00.782Z,4.97
2022-09-02T05:41:35.354Z,4.45
2022-09-02T05:44:09.695Z,2.65
2022-09-02T05:46:48.780Z,3.70
2022-09-02T05:49:24.400Z,3.58
2022-09-02T05:52:02.511Z,2.70
2022-09-02T05:54:40.815Z,4.15
2022-09-02T05:57:18.381Z,3.75
2022-09-02T06:00:08.889Z,3.17
2022-09-02T06:02:47.366Z,3.12
2022-09-02T06:05:22.748Z,5.40
2022-09-02T06:07:57.405Z,4.30
2022-09-02T06:10:30.593Z,4.90
2022-09-02T06:13:05.502Z,3.55
2022-09-02T06:15:44.657Z,4.90
2022-09-02T06:18:19.976Z,5.35
2022-09-02T06:20:54.770Z,3.08
2022-09-02T06:23:28.437Z,4.05
2022-09-02T06:26:03.062Z,2.50
2022-09-02T06:28:36.533Z,3.97
2022-09-02T06:31:16.853Z,5.97
2022-09-02T06:33:52.316Z,2.25
2022-09-02T06:36:28.562Z,3.17
2022-09-02T06:39:03.296Z,2.90
2022-09-02T06:41:39.619Z,7.20
2022-09-02T06:44:16.547Z,3.45
2022-09-02T06:46:58.152Z,3.17
2022-09-02T06:49:32.386Z,4.37
2022-09-02T06:52:06.380Z,1.67
2022-09-02T06:54:41.572Z,6.35
2022-09-02T06:57:19.278Z,2.10
2022-09-02T06:59:52.449Z,2.98
2022-09-02T07:02:27.001Z,1.80
2022-09-02T07:05:13.819Z,7.53
2022-09-02T07:07:49.548Z,5.83
2022-09-02T07:10:23.795Z,5.70
2022-09-02T07:12:57.806Z,5.03
2022-09-02T07:15:32.685Z,2.12
2022-09-02T07:18:06.422Z,2.95
2022-09-02T07:20:41.885Z,2.83
2022-09-02T07:23:16.178Z,2.07
2022-09-02T07:25:49.447Z,4.20
2022-09-02T07:28:24.772Z,4.75
2022-09-02T07:30:59.908Z,4.42
2022-09-02T07:33:32.610Z,3.00
2022-09-02T07:38:43.429Z,1.22
2022-09-02T07:41:16.822Z,7.78
2022-09-02T07:43:51.792Z,2.08
2022-09-02T07:46:26.131Z,2.05
2022-09-02T07:49:02.310Z,1.57
2022-09-02T07:51:37.760Z,2.47
2022-09-02T07:54:13.513Z,1.90
2022-09-02T07:56:46.953Z,2.47
2022-09-02T07:59:21.937Z,1.80
2022-09-02T08:01:56.231Z,4.35
2022-09-02T08:04:29.343Z,1.52
2022-09-02T08:07:03.766Z,6.33
2022-09-02T08:09:37.145Z,2.00
2022-09-02T08:12:10.814Z,2.95
2022-09-02T08:14:44.310Z,2.08
2022-09-02T08:17:17.858Z,2.72
2022-09-02T08:19:51.098Z,2.70
2022-09-02T08:22:24.369Z,3.08
2022-09-02T08:24:57.420Z,2.75
2022-09-02T08:27:30.554Z,4.10
2022-09-02T08:30:03.624Z,1.98
2022-09-02T08:32:36.861Z,3.70
2022-09-02T08:35:11.829Z,2.83
2022-09-02T08:37:45.232Z,2.62
2022-09-02T08:40:22.992Z,2.02
2022-09-02T08:42:58.041Z,3.00
2022-09-02T08:45:39.230Z,3.62
2022-09-02T08:48:27.182Z,3.90
2022-09-02T08:51:04.874Z,2.08
2022-09-02T08:53:53.910Z,1.57
2022-09-02T08:56:29.997Z,1.52
2022-09-02T08:59:03.611Z,2.92
2022-09-02T09:02:00.873Z,6.15
2022-09-02T09:05:01.083Z,10.10
2022-09-02T09:07:41.646Z,2.77
2022-09-02T09:10:19.602Z,1.92
2022-09-02T09:13:14.761Z,4.47
2022-09-02T09:16:00.993Z,3.20
2022-09-02T09:18:44.244Z,1.85
2022-09-02T09:21:18.526Z,1.60
2022-09-02T09:26:28.084Z,2.98
2022-09-02T09:29:01.849Z,1.47
2022-09-02T09:31:36.051Z,7.22
2022-09-02T09:34:15.904Z,2.12
2022-09-02T09:36:54.580Z,4.15
2022-09-02T09:39:33.116Z,1.57
2022-09-02T09:42:10.822Z,2.15
2022-09-02T09:44:49.446Z,1.47
2022-09-02T09:47:26.259Z,2.08
2022-09-02T09:50:16.313Z,4.15
2022-09-02T09:52:49.565Z,5.75
2022-09-02T09:55:25.533Z,13.15
2022-09-02T09:58:03.301Z,6.37
2022-09-02T10:00:36.300Z,7.22
2022-09-02T10:03:10.169Z,6.42
2022-09-02T10:05:43.279Z,5.35
2022-09-02T10:08:23.310Z,6.60
2022-09-02T10:11:05.897Z,2.30
2022-09-02T10:13:40.546Z,5.17
2022-09-02T10:16:57.324Z,3.92
2022-09-02T10:19:45.020Z,5.22
2022-09-02T10:22:58.846Z,2.77
2022-09-02T10:25:41.448Z,3.37
2022-09-02T10:28:49.513Z,3.17
2022-09-02T10:31:34.655Z,2.45
2022-09-02T10:34:29.140Z,1.33
2022-09-02T10:37:09.888Z,2.27
2022-09-02T10:40:19.813Z,3.02
2022-09-02T10:43:29.599Z,2.92
2022-09-02T10:46:03.592Z,1.32
2022-09-02T10:49:11.084Z,3.05
2022-09-02T10:51:51.777Z,2.52
2022-09-02T10:54:46.595Z,1.72
2022-09-02T10:57:26.808Z,2.50
2022-09-02T11:00:10.458Z,1.72
2022-09-02T11:03:11.218Z,4.37
2022-09-02T11:05:52.149Z,3.90
2022-09-02T11:08:49.205Z,9.70
2022-09-02T11:11:34.463Z,6.12
2022-09-02T11:14:48.988Z,5.10
2022-09-02T11:17:36.158Z,2.85
2022-09-02T11:20:38.973Z,4.35
2022-09-02T11:23:45.601Z,2.85
2022-09-02T11:26:38.662Z,1.77
2022-09-02T11:29:19.657Z,2.65
2022-09-02T11:32:05.640Z,2.37
2022-09-02T11:34:46.058Z,1.80
2022-09-02T11:37:35.533Z,3.20
2022-09-02T11:41:32.576Z,4.78
2022-09-02T11:44:06.753Z,3.50
2022-09-02T11:47:02.875Z,6.47
2022-09-02T11:50:12.709Z,3.17
2022-09-02T11:53:23.459Z,3.58
2022-09-02T11:56:06.979Z,4.85
2022-09-02T11:58:46.366Z,1.57
2022-09-02T12:01:43.648Z,2.15
2022-09-02T12:04:58.804Z,3.12
2022-09-02T12:07:13.304Z,3.30
2022-09-02T12:09:57.663Z,5.87
2022-09-02T12:12:47.799Z,1.98
2022-09-02T12:15:21.718Z,5.85
2022-09-02T12:18:00.746Z,4.17
2022-09-02T12:20:45.971Z,4.40
2022-09-02T12:23:58.833Z,8.28
2022-09-02T12:26:42.241Z,3.27
2022-09-02T12:29:25.559Z,3.80
2022-09-02T12:31:59.376Z,4.50
2022-09-02T12:37:08.156Z,2.35
2022-09-02T12:45:14.711Z,4.87
2022-09-02T12:48:14.209Z,10.00
2022-09-02T12:50:59.267Z,7.95
2022-09-02T12:53:45.019Z,3.55
2022-09-02T12:56:25.773Z,2.02
2022-09-02T12:59:02.722Z,1.98
2022-09-02T13:02:12.391Z,2.20
2022-09-02T13:05:05.206Z,2.70
2022-09-02T13:08:17.566Z,3.80
2022-09-02T13:10:59.416Z,2.05
2022-09-02T13:14:20.799Z,2.92
2022-09-02T13:17:19.122Z,2.52
2022-09-02T13:20:04.654Z,1.52
2022-09-02T13:22:57.810Z,3.45
2022-09-02T13:26:05.467Z,4.83
2022-09-02T13:29:10.096Z,2.37
2022-09-02T13:31:44.126Z,5.83
2022-09-02T13:34:17.450Z,1.92
2022-09-02T13:36:50.539Z,2.08
2022-09-02T13:39:29.265Z,3.47
2022-09-02T13:42:02.549Z,2.72
2022-09-02T13:44:36.365Z,6.58
2022-09-02T13:47:20.775Z,5.80
2022-09-02T13:49:55.569Z,4.97
2022-09-02T13:53:17.641Z,3.90
2022-09-02T13:55:04.790Z,5.95
2022-09-02T13:57:38.619Z,3.08
2022-09-02T14:00:16.217Z,1.70
2022-09-02T14:03:05.885Z,5.17
2022-09-02T14:05:45.341Z,5.97
2022-09-02T14:08:27.155Z,7.65
2022-09-02T14:11:05.504Z,3.67
2022-09-02T14:13:38.711Z,5.17
2022-09-02T14:16:34.873Z,6.33
2022-09-02T14:19:25.161Z,5.70
2022-09-02T14:21:59.616Z,3.45
2022-09-02T14:24:41.146Z,2.83
2022-09-02T14:27:20.580Z,4.67
2022-09-02T14:30:00.873Z,7.03
2022-09-02T14:32:36.280Z,3.02
2022-09-02T14:35:19.946Z,4.37
2022-09-02T14:37:57.946Z,3.15
2022-09-02T14:40:39.520Z,3.67
2022-09-02T14:43:15.734Z,2.75
2022-09-02T14:45:50.620Z,3.25
2022-09-02T14:48:27.382Z,8.65
2022-09-02T14:51:05.784Z,3.58
2022-09-02T14:53:40.301Z,4.47
2022-09-02T14:56:13.900Z,3.83
2022-09-02T14:58:46.935Z,3.90
2022-09-02T15:01:20.001Z,5.22
2022-09-02T15:03:53.158Z,3.77
2022-09-02T15:06:27.278Z,9.75
2022-09-02T15:09:00.408Z,4.00
2022-09-02T15:11:34.255Z,10.65
2022-09-02T15:14:07.910Z,3.60
2022-09-02T15:16:42.148Z,5.75
2022-09-02T15:19:15.254Z,2.12
2022-09-02T15:21:48.278Z,4.45
2022-09-02T15:24:21.330Z,5.95
2022-09-02T15:26:54.480Z,3.20
2022-09-02T15:29:29.090Z,4.05
2022-09-02T15:32:04.263Z,5.28
2022-09-02T15:34:38.003Z,5.10
2022-09-02T15:37:13.233Z,2.90
2022-09-02T15:39:46.911Z,3.15
2022-09-02T15:42:19.960Z,5.23
2022-09-02T15:44:53.973Z,3.37
2022-09-02T15:47:29.824Z,5.00
2022-09-02T15:50:03.478Z,2.10
2022-09-02T15:52:37.564Z,2.55
2022-09-02T15:55:10.852Z,5.67
2022-09-02T15:57:44.263Z,3.55
2022-09-02T16:00:17.400Z,6.08
2022-09-02T16:02:50.567Z,5.95
2022-09-02T16:05:24.519Z,2.60
2022-09-02T16:07:57.753Z,8.40
2022-09-02T16:10:30.652Z,6.25
2022-09-02T16:13:03.658Z,5.00
2022-09-02T16:15:38.959Z,3.27
2022-09-02T16:18:12.801Z,4.37
2022-09-02T16:20:45.906Z,1.98
2022-09-02T16:23:19.464Z,1.42
2022-09-02T16:26:08.956Z,2.87
2022-09-02T16:28:47.289Z,2.90
2022-09-02T16:31:22.273Z,2.33
2022-09-02T16:34:08.649Z,5.75
2022-09-02T16:36:46.477Z,6.60
2022-09-02T16:39:20.990Z,3.80
2022-09-02T16:41:54.953Z,5.40
2022-09-02T16:44:29.247Z,4.08
2022-09-02T16:47:02.599Z,8.25
2022-09-02T16:52:09.092Z,3.67
2022-09-02T16:54:43.734Z,3.83
2022-09-02T16:57:17.624Z,5.70
2022-09-02T16:59:52.711Z,2.20
2022-09-02T17:02:25.724Z,2.27
2022-09-02T17:04:58.884Z,4.08
2022-09-02T17:07:32.213Z,4.37
2022-09-02T17:10:06.246Z,5.33
2022-09-02T17:12:43.016Z,3.75
2022-09-02T17:15:14.934Z,3.22
2022-09-02T17:17:47.800Z,4.27
2022-09-02T17:20:21.145Z,5.30
2022-09-02T17:22:54.484Z,1.80
2022-09-02T17:25:27.501Z,2.45
2022-09-02T17:28:00.685Z,3.45
2022-09-02T17:30:33.764Z,3.65
2022-09-02T17:33:06.867Z,5.10
2022-09-02T17:35:41.570Z,4.63
2022-09-02T17:41:04.848Z,7.08
2022-09-02T17:43:38.923Z,2.50
2022-09-02T17:46:12.082Z,5.97
2022-09-02T17:49:05.771Z,5.72
2022-09-02T17:51:19.714Z,6.70
2022-09-02T17:53:53.419Z,4.13
2022-09-02T17:56:58.179Z,5.87
2022-09-02T18:00:01.565Z,3.23
2022-09-02T18:02:56.700Z,4.58
2022-09-02T18:05:55.217Z,2.40
2022-09-02T18:08:39.679Z,8.55
2022-09-02T18:11:13.742Z,3.22
2022-09-02T18:13:57.198Z,2.42
2022-09-02T18:16:59.321Z,3.65
2022-09-02T18:20:00.695Z,2.98
2022-09-02T18:23:03.572Z,7.28
2022-09-02T18:26:07.323Z,6.17
2022-09-02T18:28:59.071Z,1.60
2022-09-02T18:31:52.256Z,2.50
2022-09-02T18:34:46.162Z,4.30
2022-09-02T18:37:52.504Z,1.25
2022-09-02T18:40:32.786Z,3.92
2022-09-02T18:43:44.485Z,1.70
2022-09-02T18:46:18.893Z,1.00
2022-09-02T18:48:54.237Z,2.72
2022-09-02T18:51:35.905Z,1.10
2022-09-02T18:54:31.471Z,4.03
2022-09-02T18:57:08.056Z,2.62
2022-09-02T18:59:57.891Z,1.47
2022-09-02T19:03:02.661Z,2.55
2022-09-02T19:05:36.819Z,1.65
2022-09-02T19:08:34.474Z,1.98
2022-09-02T19:11:13.502Z,3.40
2022-09-02T19:13:55.934Z,2.90
2022-09-02T19:16:39.887Z,2.17
2022-09-02T19:19:14.440Z,1.70
2022-09-02T19:21:59.133Z,2.17
2022-09-02T19:24:39.679Z,1.98
2022-09-02T19:27:18.785Z,1.60
2022-09-02T19:29:57.380Z,1.77
2022-09-02T19:32:33.304Z,2.55
2022-09-02T19:35:13.903Z,2.45
2022-09-02T19:37:51.276Z,2.60
2022-09-02T19:40:37.085Z,2.22
2022-09-02T19:43:11.772Z,1.65
2022-09-02T19:45:48.112Z,7.45
2022-09-02T19:48:21.457Z,2.95
2022-09-02T19:50:55.564Z,2.80
2022-09-02T19:53:31.456Z,3.95
2022-09-02T19:56:06.586Z,5.58
2022-09-02T19:58:40.305Z,5.75
2022-09-02T20:01:13.428Z,3.22
2022-09-02T20:03:46.762Z,2.58
2022-09-02T20:06:19.759Z,2.98
2022-09-02T20:08:53.639Z,3.27
2022-09-02T20:11:27.030Z,1.98
2022-09-02T20:13:59.853Z,2.02
2022-09-02T20:16:33.512Z,2.87
2022-09-02T20:19:06.519Z,2.57
2022-09-02T20:21:46.747Z,1.85
2022-09-02T20:24:29.463Z,2.55
2022-09-02T20:27:29.483Z,2.15
2022-09-02T20:30:14.605Z,3.62
2022-09-02T20:33:03.335Z,1.98
2022-09-02T20:36:22.403Z,2.10
2022-09-02T20:39:04.100Z,4.42
2022-09-02T20:42:06.061Z,4.35
2022-09-02T20:45:02.705Z,4.00
2022-09-02T20:47:59.341Z,4.60
2022-09-02T20:50:52.188Z,3.95
2022-09-02T20:53:35.435Z,5.67
2022-09-02T20:56:28.208Z,7.08
2022-09-02T20:59:29.089Z,13.62
2022-09-02T21:02:03.323Z,16.35
2022-09-02T21:04:44.968Z,12.47
2022-09-02T21:07:32.052Z,9.23
2022-09-02T21:10:29.696Z,10.43
2022-09-02T21:13:10.271Z,9.25
2022-09-02T21:15:50.573Z,11.30
2022-09-02T21:18:37.249Z,10.43
2022-09-02T21:21:38.561Z,11.18
2022-09-02T21:24:25.316Z,13.93
2022-09-02T21:27:20.192Z,12.47
2022-09-02T21:30:09.138Z,11.50
2022-09-02T21:32:48.496Z,12.25
2022-09-02T21:35:34.898Z,12.10
2022-09-02T21:38:24.741Z,11.68
2022-09-02T21:41:33.738Z,12.37
2022-09-02T21:44:39.831Z,14.87
2022-09-02T21:47:42.133Z,10.80
2022-09-02T21:50:29.145Z,13.58
2022-09-02T21:53:19.438Z,11.38
2022-09-02T21:56:06.250Z,8.95
2022-09-02T21:59:06.572Z,7.08
2022-09-02T22:02:00.470Z,8.63
2022-09-02T22:04:54.837Z,12.65
2022-09-02T22:07:54.613Z,8.93
2022-09-02T22:10:43.716Z,8.65
2022-09-02T22:13:16.813Z,11.33
2022-09-02T22:16:30.553Z,10.10
2022-09-02T22:19:10.053Z,13.05
2022-09-02T22:22:00.435Z,16.20
2022-09-02T22:24:35.085Z,14.30
2022-09-02T22:27:28.821Z,9.28
2022-09-02T22:30:16.207Z,9.55
2022-09-02T22:33:01.246Z,6.85
2022-09-02T22:35:55.505Z,6.83
2022-09-02T22:38:47.408Z,7.05
2022-09-02T22:41:43.157Z,3.98
2022-09-02T22:44:30.473Z,5.62
2022-09-02T22:47:25.549Z,4.53
2022-09-02T22:50:18.549Z,5.58
2022-09-02T22:52:58.154Z,4.50
2022-09-02T22:55:47.106Z,7.65
2022-09-02T22:59:15.548Z,5.55
2022-09-02T23:01:56.251Z,5.90
2022-09-02T23:04:51.404Z,5.60
2022-09-02T23:07:26.161Z,7.65
2022-09-02T23:10:03.576Z,10.10
2022-09-02T23:12:44.010Z,7.83
2022-09-02T23:15:30.281Z,14.80
2022-09-02T23:18:14.290Z,7.00
2022-09-02T23:21:00.669Z,7.45
2022-09-02T23:24:00.900Z,6.62
2022-09-02T23:26:58.483Z,7.30
2022-09-02T23:29:33.362Z,5.97
2022-09-02T23:32:28.598Z,6.30
2022-09-02T23:35:27.116Z,7.40
2022-09-02T23:38:19.830Z,7.67
2022-09-02T23:41:11.978Z,5.70
2022-09-02T23:43:45.585Z,6.20
2022-09-02T23:46:51.917Z,6.40
2022-09-02T23:49:38.376Z,6.90
2022-09-02T23:52:27.434Z,5.67
2022-09-02T23:55:28.867Z,11.75
2022-09-02T23:58:33.903Z,7.85
